AAY1563 KATW-KBNA
Flight info
| Callsign | AAY1563 |
|---|---|
| Flight time | N/A |
| Altitude | 35000 |
| Route | BAE J89 OBK J73 TILMN TONES RYYMN3 |
| Aircraft | A320/M-SDE3FGHIRWY/LB1 |
Departure
| Time | 2026-05-08 23:23 |
|---|---|
| Airport | Appleton International Airport (KATW) |
Arrival
| Time | N/A |
|---|---|
| Airport | Nashville International Airport (KBNA) |
| Time | Latitude | Longitude | Altitude | Speed | Heading |
|---|---|---|---|---|---|
| 2026-05-08 23:12 | 44.25967 | -88.51368 | 888 ft | 0 kts | 0° |
| 2026-05-08 23:13 | 44.25958 | -88.51368 | 889 ft | 3 kts | 358° |
| 2026-05-08 23:13 | 44.25935 | -88.51364 | 889 ft | 3 kts | 341° |
| 2026-05-08 23:13 | 44.25915 | -88.51350 | 888 ft | 3 kts | 307° |
| 2026-05-08 23:14 | 44.25909 | -88.51334 | 888 ft | 2 kts | 271° |
| 2026-05-08 23:14 | 44.25909 | -88.51331 | 888 ft | 0 kts | 270° |
| 2026-05-08 23:18 | 44.25909 | -88.51362 | 889 ft | 5 kts | 270° |
| 2026-05-08 23:18 | 44.25904 | -88.51434 | 889 ft | 10 kts | 256° |
| 2026-05-08 23:18 | 44.25887 | -88.51538 | 889 ft | 12 kts | 274° |
| 2026-05-08 23:19 | 44.25967 | -88.51569 | 890 ft | 14 kts | 359° |
| 2026-05-08 23:19 | 44.26057 | -88.51552 | 890 ft | 12 kts | 25° |
| 2026-05-08 23:19 | 44.26127 | -88.51529 | 890 ft | 9 kts | 326° |
| 2026-05-08 23:19 | 44.26163 | -88.51571 | 893 ft | 6 kts | 347° |
| 2026-05-08 23:20 | 44.26214 | -88.51548 | 893 ft | 10 kts | 23° |
| 2026-05-08 23:20 | 44.26296 | -88.51494 | 893 ft | 15 kts | 26° |
| 2026-05-08 23:20 | 44.26397 | -88.51424 | 894 ft | 16 kts | 26° |
| 2026-05-08 23:20 | 44.26489 | -88.51360 | 895 ft | 14 kts | 26° |
| 2026-05-08 23:21 | 44.26564 | -88.51309 | 897 ft | 12 kts | 26° |
| 2026-05-08 23:21 | 44.26661 | -88.51244 | 898 ft | 18 kts | 26° |
| 2026-05-08 23:21 | 44.26769 | -88.51169 | 898 ft | 15 kts | 25° |
| 2026-05-08 23:21 | 44.26830 | -88.51211 | 898 ft | 11 kts | 296° |
| 2026-05-08 23:22 | 44.26815 | -88.51311 | 896 ft | 19 kts | 205° |
| 2026-05-08 23:22 | 44.26540 | -88.51496 | 897 ft | 78 kts | 206° |
| 2026-05-08 23:22 | 44.25857 | -88.51962 | 901 ft | 138 kts | 206° |
| 2026-05-08 23:22 | 44.24882 | -88.52623 | 1190 ft | 162 kts | 208° |
| 2026-05-08 23:23 | 44.23867 | -88.53310 | 1949 ft | 161 kts | 208° |
| 2026-05-08 23:23 | 44.22764 | -88.53780 | 2502 ft | 179 kts | 182° |
| 2026-05-08 23:23 | 44.21435 | -88.53548 | 2798 ft | 206 kts | 175° |
| 2026-05-08 23:23 | 44.19935 | -88.53207 | 3143 ft | 231 kts | 173° |
| 2026-05-08 23:24 | 44.18290 | -88.52815 | 3731 ft | 246 kts | 173° |
| 2026-05-08 23:24 | 44.16580 | -88.52403 | 4549 ft | 253 kts | 174° |
| 2026-05-08 23:24 | 44.14822 | -88.51981 | 5345 ft | 260 kts | 174° |
| 2026-05-08 23:24 | 44.13009 | -88.51553 | 6128 ft | 268 kts | 174° |
| 2026-05-08 23:25 | 44.11145 | -88.51116 | 6896 ft | 276 kts | 174° |
| 2026-05-08 23:25 | 44.09236 | -88.50676 | 7723 ft | 280 kts | 175° |
| 2026-05-08 23:25 | 44.07302 | -88.50228 | 8553 ft | 283 kts | 174° |
| 2026-05-08 23:25 | 44.05344 | -88.49773 | 9361 ft | 287 kts | 174° |
| 2026-05-08 23:26 | 44.03353 | -88.49310 | 10117 ft | 293 kts | 175° |
| 2026-05-08 23:26 | 44.01255 | -88.48832 | 10410 ft | 316 kts | 175° |
| 2026-05-08 23:26 | 43.99006 | -88.48321 | 10675 ft | 337 kts | 175° |
| 2026-05-08 23:26 | 43.96654 | -88.47786 | 11247 ft | 347 kts | 175° |
| 2026-05-08 23:27 | 43.94246 | -88.47233 | 11931 ft | 353 kts | 175° |
| 2026-05-08 23:27 | 43.91801 | -88.46669 | 12597 ft | 359 kts | 176° |
| 2026-05-08 23:27 | 43.89320 | -88.46097 | 13287 ft | 363 kts | 176° |
| 2026-05-08 23:27 | 43.86814 | -88.45516 | 13991 ft | 366 kts | 176° |
| 2026-05-08 23:28 | 43.84285 | -88.44925 | 14662 ft | 370 kts | 176° |
| 2026-05-08 23:28 | 43.81729 | -88.44335 | 15341 ft | 374 kts | 176° |
| 2026-05-08 23:28 | 43.79187 | -88.43753 | 15989 ft | 376 kts | 177° |
| 2026-05-08 23:28 | 43.76596 | -88.43157 | 16628 ft | 379 kts | 177° |
| 2026-05-08 23:29 | 43.73983 | -88.42556 | 17215 ft | 383 kts | 177° |
| 2026-05-08 23:29 | 43.71338 | -88.41949 | 17821 ft | 386 kts | 177° |
| 2026-05-08 23:29 | 43.68683 | -88.41340 | 18408 ft | 389 kts | 177° |
| 2026-05-08 23:29 | 43.66004 | -88.40725 | 18985 ft | 392 kts | 177° |
| 2026-05-08 23:30 | 43.63302 | -88.40107 | 19550 ft | 395 kts | 178° |
| 2026-05-08 23:30 | 43.60582 | -88.39488 | 20115 ft | 398 kts | 178° |
| 2026-05-08 23:30 | 43.57842 | -88.38866 | 20665 ft | 401 kts | 178° |
| 2026-05-08 23:30 | 43.55078 | -88.38240 | 21193 ft | 404 kts | 178° |
| 2026-05-08 23:31 | 43.52295 | -88.37610 | 21725 ft | 407 kts | 178° |
| 2026-05-08 23:31 | 43.49494 | -88.36974 | 22231 ft | 409 kts | 178° |
| 2026-05-08 23:31 | 43.46674 | -88.36337 | 22726 ft | 412 kts | 178° |
| 2026-05-08 23:31 | 43.43837 | -88.35695 | 23213 ft | 415 kts | 178° |
| 2026-05-08 23:32 | 43.40978 | -88.35048 | 23672 ft | 417 kts | 178° |
| 2026-05-08 23:32 | 43.38105 | -88.34395 | 24111 ft | 420 kts | 178° |
| 2026-05-08 23:32 | 43.35207 | -88.33737 | 24543 ft | 423 kts | 178° |
| 2026-05-08 23:32 | 43.32296 | -88.33080 | 24951 ft | 425 kts | 179° |
| 2026-05-08 23:33 | 43.29367 | -88.32423 | 25355 ft | 427 kts | 179° |
| 2026-05-08 23:33 | 43.26425 | -88.31762 | 25742 ft | 430 kts | 179° |
| 2026-05-08 23:33 | 43.23470 | -88.31097 | 26106 ft | 432 kts | 179° |
| 2026-05-08 23:33 | 43.20491 | -88.30426 | 26479 ft | 434 kts | 179° |
| 2026-05-08 23:34 | 43.17505 | -88.29754 | 26847 ft | 436 kts | 179° |
| 2026-05-08 23:34 | 43.14509 | -88.29084 | 27200 ft | 437 kts | 180° |
| 2026-05-08 23:34 | 43.11498 | -88.28490 | 27546 ft | 437 kts | 181° |
| 2026-05-08 23:34 | 43.08477 | -88.27990 | 27868 ft | 438 kts | 182° |
| 2026-05-08 23:35 | 43.05446 | -88.27545 | 28183 ft | 439 kts | 183° |
| 2026-05-08 23:35 | 43.02400 | -88.27122 | 28493 ft | 441 kts | 183° |
| 2026-05-08 23:35 | 42.99340 | -88.26697 | 28797 ft | 443 kts | 183° |
| 2026-05-08 23:35 | 42.96264 | -88.26252 | 29093 ft | 446 kts | 183° |
| 2026-05-08 23:36 | 42.93179 | -88.25783 | 29414 ft | 447 kts | 183° |
| 2026-05-08 23:36 | 42.90126 | -88.25307 | 29714 ft | 448 kts | 183° |
| 2026-05-08 23:36 | 42.87025 | -88.24818 | 29990 ft | 449 kts | 183° |
| 2026-05-08 23:36 | 42.83912 | -88.24326 | 30244 ft | 451 kts | 183° |
| 2026-05-08 23:37 | 42.80788 | -88.23834 | 30477 ft | 453 kts | 183° |
| 2026-05-08 23:37 | 42.77655 | -88.23342 | 30705 ft | 454 kts | 183° |
| 2026-05-08 23:37 | 42.74508 | -88.22850 | 30924 ft | 456 kts | 183° |
| 2026-05-08 23:37 | 42.71349 | -88.22359 | 31146 ft | 457 kts | 184° |
| 2026-05-08 23:38 | 42.68197 | -88.21872 | 31488 ft | 455 kts | 184° |
| 2026-05-08 23:38 | 42.65055 | -88.21388 | 31801 ft | 454 kts | 184° |
| 2026-05-08 23:38 | 42.61922 | -88.20906 | 32089 ft | 453 kts | 184° |
| 2026-05-08 23:38 | 42.58789 | -88.20425 | 32402 ft | 452 kts | 184° |
| 2026-05-08 23:39 | 42.55660 | -88.19951 | 32707 ft | 451 kts | 184° |
| 2026-05-08 23:39 | 42.52544 | -88.19478 | 33005 ft | 450 kts | 184° |
| 2026-05-08 23:39 | 42.49434 | -88.19003 | 33303 ft | 449 kts | 184° |
| 2026-05-08 23:39 | 42.46336 | -88.18526 | 33603 ft | 448 kts | 184° |
| 2026-05-08 23:40 | 42.43243 | -88.18050 | 33885 ft | 447 kts | 185° |
| 2026-05-08 23:40 | 42.40153 | -88.17576 | 34156 ft | 447 kts | 185° |
| 2026-05-08 23:40 | 42.37068 | -88.17103 | 34430 ft | 446 kts | 184° |
| 2026-05-08 23:40 | 42.33981 | -88.16634 | 34676 ft | 446 kts | 185° |
| 2026-05-08 23:41 | 42.30893 | -88.16167 | 34790 ft | 446 kts | 184° |
| 2026-05-08 23:41 | 42.27824 | -88.15697 | 34805 ft | 443 kts | 184° |
| 2026-05-08 23:41 | 42.21713 | -88.14761 | 34807 ft | 441 kts | 184° |
| 2026-05-08 23:42 | 42.15615 | -88.13839 | 34808 ft | 441 kts | 185° |
| 2026-05-08 23:42 | 42.09555 | -88.12919 | 34809 ft | 441 kts | 185° |
| 2026-05-08 23:43 | 42.03462 | -88.11989 | 34809 ft | 441 kts | 184° |
| 2026-05-08 23:43 | 41.97371 | -88.11068 | 34803 ft | 440 kts | 185° |
| 2026-05-08 23:44 | 41.91286 | -88.10159 | 34802 ft | 440 kts | 185° |
| 2026-05-08 23:44 | 41.85202 | -88.09242 | 34799 ft | 440 kts | 185° |
| 2026-05-08 23:45 | 41.79117 | -88.08336 | 34796 ft | 440 kts | 185° |
| 2026-05-08 23:45 | 41.73031 | -88.07431 | 34793 ft | 440 kts | 184° |
| 2026-05-08 23:46 | 41.66946 | -88.06510 | 34795 ft | 440 kts | 185° |
| 2026-05-08 23:46 | 41.60861 | -88.05606 | 34813 ft | 440 kts | 185° |
| 2026-05-08 23:47 | 41.54779 | -88.04706 | 34815 ft | 440 kts | 185° |
| 2026-05-08 23:47 | 41.48700 | -88.03802 | 34809 ft | 439 kts | 185° |
| 2026-05-08 23:48 | 41.42628 | -88.02894 | 34818 ft | 439 kts | 185° |
| 2026-05-08 23:48 | 41.36558 | -88.01992 | 34822 ft | 438 kts | 185° |
| 2026-05-08 23:49 | 41.30499 | -88.01101 | 34823 ft | 438 kts | 185° |
| 2026-05-08 23:49 | 41.24448 | -88.00209 | 34832 ft | 437 kts | 185° |
| 2026-05-08 23:50 | 41.18398 | -87.99316 | 34841 ft | 437 kts | 185° |
| 2026-05-08 23:50 | 41.12352 | -87.98428 | 34848 ft | 437 kts | 185° |
| 2026-05-08 23:51 | 41.06316 | -87.97541 | 34853 ft | 436 kts | 185° |
| 2026-05-08 23:51 | 41.00281 | -87.96652 | 34865 ft | 436 kts | 185° |
| 2026-05-08 23:52 | 40.94252 | -87.95771 | 34872 ft | 435 kts | 185° |
| 2026-05-08 23:52 | 40.88266 | -87.94901 | 34873 ft | 435 kts | 186° |
| 2026-05-08 23:53 | 40.82260 | -87.94033 | 34871 ft | 434 kts | 186° |
| 2026-05-08 23:53 | 40.76267 | -87.93167 | 34869 ft | 433 kts | 186° |
| 2026-05-08 23:54 | 40.70274 | -87.92292 | 34873 ft | 433 kts | 186° |
| 2026-05-08 23:55 | 40.61304 | -87.90986 | 34882 ft | 431 kts | 186° |
| 2026-05-08 23:55 | 40.55336 | -87.90123 | 34885 ft | 431 kts | 186° |
| 2026-05-08 23:56 | 40.49382 | -87.89265 | 34885 ft | 430 kts | 186° |
| 2026-05-08 23:56 | 40.43436 | -87.88419 | 34882 ft | 430 kts | 186° |
| 2026-05-08 23:57 | 40.37496 | -87.87566 | 34877 ft | 429 kts | 186° |
| 2026-05-08 23:57 | 40.31561 | -87.86713 | 34878 ft | 429 kts | 186° |
| 2026-05-08 23:58 | 40.25648 | -87.86019 | 34880 ft | 423 kts | 189° |
| 2026-05-08 23:58 | 40.19797 | -87.85785 | 34880 ft | 420 kts | 191° |
| 2026-05-08 23:59 | 40.13969 | -87.85662 | 34883 ft | 419 kts | 191° |
| 2026-05-08 23:59 | 40.08132 | -87.85452 | 34886 ft | 419 kts | 191° |
| 2026-05-09 00:00 | 40.03277 | -87.85230 | 34882 ft | 419 kts | 190° |
| 2026-05-09 00:00 | 39.97448 | -87.84962 | 34881 ft | 418 kts | 191° |
| 2026-05-09 00:01 | 39.91627 | -87.84703 | 34882 ft | 419 kts | 191° |
| 2026-05-09 00:01 | 39.85794 | -87.84453 | 34886 ft | 419 kts | 190° |
| 2026-05-09 00:02 | 39.79967 | -87.84203 | 34891 ft | 419 kts | 190° |
| 2026-05-09 00:02 | 39.74133 | -87.83941 | 34897 ft | 419 kts | 190° |
| 2026-05-09 00:03 | 39.68346 | -87.83684 | 34898 ft | 418 kts | 190° |
| 2026-05-09 00:03 | 39.62531 | -87.83430 | 34892 ft | 418 kts | 190° |
| 2026-05-09 00:04 | 39.56668 | -87.83180 | 34893 ft | 418 kts | 190° |
| 2026-05-09 00:04 | 39.50859 | -87.82931 | 34897 ft | 419 kts | 189° |
| 2026-05-09 00:04 | 39.47920 | -87.82447 | 34898 ft | 433 kts | 180° |
| 2026-05-09 00:05 | 39.45009 | -87.81646 | 34900 ft | 434 kts | 180° |
| 2026-05-09 00:05 | 39.39069 | -87.79980 | 34894 ft | 434 kts | 180° |
| 2026-05-09 00:06 | 39.33210 | -87.78338 | 34890 ft | 433 kts | 180° |
| 2026-05-09 00:06 | 39.27273 | -87.76691 | 34886 ft | 433 kts | 180° |
| 2026-05-09 00:07 | 39.21376 | -87.75075 | 34887 ft | 433 kts | 181° |
| 2026-05-09 00:07 | 39.15485 | -87.73455 | 34887 ft | 433 kts | 180° |
| 2026-05-09 00:08 | 39.09640 | -87.71848 | 34887 ft | 432 kts | 181° |
| 2026-05-09 00:08 | 39.03755 | -87.70240 | 34891 ft | 432 kts | 181° |
| 2026-05-09 00:09 | 38.97875 | -87.68628 | 34887 ft | 432 kts | 181° |
| 2026-05-09 00:09 | 38.91996 | -87.67009 | 34886 ft | 431 kts | 181° |
| 2026-05-09 00:10 | 38.86137 | -87.65401 | 34885 ft | 430 kts | 181° |
| 2026-05-09 00:10 | 38.80281 | -87.63810 | 34884 ft | 430 kts | 181° |
| 2026-05-09 00:11 | 38.74416 | -87.62220 | 34883 ft | 431 kts | 181° |
| 2026-05-09 00:11 | 38.68549 | -87.60627 | 34884 ft | 431 kts | 181° |
| 2026-05-09 00:12 | 38.62679 | -87.59036 | 34886 ft | 431 kts | 181° |
| 2026-05-09 00:12 | 38.56822 | -87.57446 | 34894 ft | 430 kts | 181° |
| 2026-05-09 00:13 | 38.50969 | -87.55861 | 34897 ft | 430 kts | 181° |
| 2026-05-09 00:13 | 38.45121 | -87.54278 | 34898 ft | 429 kts | 181° |
| 2026-05-09 00:14 | 38.39285 | -87.52706 | 34896 ft | 428 kts | 181° |
| 2026-05-09 00:14 | 38.33457 | -87.51144 | 34892 ft | 428 kts | 181° |
| 2026-05-09 00:15 | 38.27626 | -87.49581 | 34894 ft | 428 kts | 181° |
| 2026-05-09 00:15 | 38.21790 | -87.48013 | 34896 ft | 428 kts | 181° |
| 2026-05-09 00:16 | 38.15958 | -87.46448 | 34902 ft | 429 kts | 181° |
| 2026-05-09 00:16 | 38.10110 | -87.44883 | 34911 ft | 429 kts | 181° |
| 2026-05-09 00:17 | 38.04298 | -87.43338 | 34917 ft | 430 kts | 181° |
| 2026-05-09 00:17 | 37.98458 | -87.41468 | 34920 ft | 446 kts | 172° |
| 2026-05-09 00:17 | 37.95570 | -87.39942 | 34733 ft | 449 kts | 171° |
| 2026-05-09 00:18 | 37.92701 | -87.38391 | 34477 ft | 449 kts | 171° |
| 2026-05-09 00:18 | 37.89834 | -87.36832 | 34234 ft | 448 kts | 171° |
| 2026-05-09 00:18 | 37.86971 | -87.35277 | 33977 ft | 447 kts | 170° |
| 2026-05-09 00:18 | 37.84112 | -87.33731 | 33723 ft | 447 kts | 171° |
| 2026-05-09 00:19 | 37.81258 | -87.32192 | 33209 ft | 444 kts | 170° |
| 2026-05-09 00:19 | 37.78425 | -87.30668 | 32603 ft | 441 kts | 170° |
| 2026-05-09 00:19 | 37.75608 | -87.29156 | 31987 ft | 439 kts | 170° |
| 2026-05-09 00:19 | 37.72800 | -87.27650 | 31354 ft | 438 kts | 169° |
| 2026-05-09 00:20 | 37.70000 | -87.26154 | 30718 ft | 437 kts | 169° |
| 2026-05-09 00:20 | 37.67204 | -87.24659 | 30059 ft | 436 kts | 169° |
| 2026-05-09 00:20 | 37.64415 | -87.23170 | 29407 ft | 434 kts | 168° |
| 2026-05-09 00:20 | 37.61638 | -87.21685 | 28761 ft | 434 kts | 168° |
| 2026-05-09 00:21 | 37.58865 | -87.20206 | 28123 ft | 432 kts | 167° |
| 2026-05-09 00:21 | 37.56099 | -87.18733 | 27487 ft | 431 kts | 167° |
| 2026-05-09 00:21 | 37.53341 | -87.17263 | 26861 ft | 430 kts | 166° |
| 2026-05-09 00:21 | 37.50586 | -87.15792 | 26233 ft | 428 kts | 166° |
| 2026-05-09 00:22 | 37.47847 | -87.14329 | 25605 ft | 427 kts | 165° |
| 2026-05-09 00:22 | 37.45114 | -87.12874 | 24989 ft | 425 kts | 165° |
| 2026-05-09 00:22 | 37.42394 | -87.11432 | 24379 ft | 424 kts | 165° |
| 2026-05-09 00:22 | 37.39681 | -87.09992 | 23768 ft | 423 kts | 164° |
| 2026-05-09 00:23 | 37.36936 | -87.08756 | 23195 ft | 414 kts | 172° |
| 2026-05-09 00:23 | 37.34147 | -87.08110 | 22679 ft | 406 kts | 182° |
| 2026-05-09 00:23 | 37.31343 | -87.08004 | 22276 ft | 399 kts | 188° |
| 2026-05-09 00:23 | 37.28564 | -87.08104 | 21875 ft | 399 kts | 189° |
| 2026-05-09 00:24 | 37.25794 | -87.08209 | 21460 ft | 397 kts | 189° |
| 2026-05-09 00:24 | 37.23043 | -87.08313 | 21051 ft | 394 kts | 188° |
| 2026-05-09 00:24 | 37.20309 | -87.08410 | 20645 ft | 392 kts | 188° |
| 2026-05-09 00:24 | 37.17590 | -87.08507 | 20243 ft | 390 kts | 188° |
| 2026-05-09 00:25 | 37.14885 | -87.08603 | 19842 ft | 387 kts | 188° |
| 2026-05-09 00:25 | 37.12202 | -87.08703 | 19439 ft | 385 kts | 188° |
| 2026-05-09 00:25 | 37.09534 | -87.08808 | 19038 ft | 383 kts | 188° |
| 2026-05-09 00:25 | 37.06877 | -87.08914 | 18645 ft | 381 kts | 188° |
| 2026-05-09 00:26 | 37.04230 | -87.09015 | 18250 ft | 379 kts | 188° |
| 2026-05-09 00:26 | 37.01601 | -87.09112 | 17860 ft | 377 kts | 188° |
| 2026-05-09 00:26 | 36.98986 | -87.09208 | 17471 ft | 375 kts | 188° |
| 2026-05-09 00:26 | 36.96416 | -87.09296 | 17105 ft | 373 kts | 188° |
| 2026-05-09 00:27 | 36.93797 | -87.09392 | 16748 ft | 371 kts | 188° |
| 2026-05-09 00:27 | 36.91225 | -87.09485 | 16368 ft | 369 kts | 187° |
| 2026-05-09 00:27 | 36.88665 | -87.09578 | 15978 ft | 366 kts | 187° |
| 2026-05-09 00:27 | 36.86126 | -87.09669 | 15651 ft | 362 kts | 187° |
| 2026-05-09 00:28 | 36.83635 | -87.09711 | 15341 ft | 357 kts | 182° |
| 2026-05-09 00:28 | 36.81164 | -87.09223 | 14880 ft | 363 kts | 168° |
| 2026-05-09 00:28 | 36.78851 | -87.08031 | 14739 ft | 357 kts | 158° |
| 2026-05-09 00:28 | 36.76696 | -87.06679 | 14610 ft | 345 kts | 159° |
| 2026-05-09 00:29 | 36.74592 | -87.05376 | 14284 ft | 331 kts | 159° |
| 2026-05-09 00:29 | 36.72538 | -87.04127 | 13680 ft | 326 kts | 159° |
| 2026-05-09 00:29 | 36.70513 | -87.02905 | 13049 ft | 321 kts | 159° |
| 2026-05-09 00:29 | 36.68514 | -87.01697 | 12400 ft | 317 kts | 158° |
| 2026-05-09 00:30 | 36.66538 | -87.00498 | 12028 ft | 314 kts | 158° |
| 2026-05-09 00:30 | 36.64581 | -86.99312 | 11681 ft | 312 kts | 158° |
| 2026-05-09 00:30 | 36.62698 | -86.97956 | 11313 ft | 314 kts | 146° |
| 2026-05-09 00:30 | 36.61126 | -86.96073 | 10977 ft | 315 kts | 131° |
| 2026-05-09 00:31 | 36.59964 | -86.93763 | 10644 ft | 315 kts | 117° |
| 2026-05-09 00:31 | 36.59202 | -86.91215 | 10221 ft | 311 kts | 111° |
| 2026-05-09 00:31 | 36.58500 | -86.88686 | 9568 ft | 308 kts | 111° |
| 2026-05-09 00:31 | 36.57792 | -86.86196 | 8968 ft | 301 kts | 114° |
| 2026-05-09 00:32 | 36.56707 | -86.84074 | 8414 ft | 286 kts | 140° |
| 2026-05-09 00:32 | 36.55098 | -86.82697 | 7731 ft | 279 kts | 154° |
| 2026-05-09 00:32 | 36.53390 | -86.81584 | 7041 ft | 276 kts | 155° |
| 2026-05-09 00:32 | 36.51685 | -86.80508 | 6383 ft | 272 kts | 155° |
| 2026-05-09 00:33 | 36.49990 | -86.79445 | 5965 ft | 272 kts | 155° |
| 2026-05-09 00:33 | 36.48311 | -86.78397 | 5583 ft | 269 kts | 155° |
| 2026-05-09 00:33 | 36.46642 | -86.77361 | 5163 ft | 267 kts | 156° |
| 2026-05-09 00:33 | 36.44984 | -86.76336 | 4735 ft | 266 kts | 155° |
| 2026-05-09 00:34 | 36.43345 | -86.75330 | 4312 ft | 265 kts | 155° |
| 2026-05-09 00:34 | 36.41692 | -86.74319 | 3896 ft | 265 kts | 155° |
| 2026-05-09 00:34 | 36.40041 | -86.73318 | 3492 ft | 263 kts | 155° |
| 2026-05-09 00:34 | 36.38397 | -86.72327 | 3083 ft | 262 kts | 155° |
| 2026-05-09 00:35 | 36.36795 | -86.71359 | 2979 ft | 248 kts | 155° |
| 2026-05-09 00:35 | 36.35302 | -86.70457 | 2990 ft | 230 kts | 155° |
| 2026-05-09 00:35 | 36.33902 | -86.69612 | 2995 ft | 220 kts | 156° |
| 2026-05-09 00:35 | 36.32512 | -86.68775 | 2998 ft | 219 kts | 155° |
| 2026-05-09 00:36 | 36.31159 | -86.67960 | 2997 ft | 218 kts | 155° |
| 2026-05-09 00:36 | 36.29796 | -86.67137 | 3003 ft | 217 kts | 155° |
| 2026-05-09 00:36 | 36.28440 | -86.66318 | 3010 ft | 217 kts | 156° |
| 2026-05-09 00:36 | 36.27084 | -86.65498 | 3010 ft | 217 kts | 155° |
| 2026-05-09 00:37 | 36.25749 | -86.64694 | 2995 ft | 207 kts | 156° |
| 2026-05-09 00:37 | 36.24394 | -86.64188 | 2740 ft | 201 kts | 175° |
| 2026-05-09 00:37 | 36.23023 | -86.64254 | 2511 ft | 196 kts | 192° |
| 2026-05-09 00:37 | 36.21741 | -86.64733 | 2213 ft | 189 kts | 198° |
| 2026-05-09 00:38 | 36.20529 | -86.65214 | 1957 ft | 175 kts | 198° |
| 2026-05-09 00:38 | 36.19441 | -86.65644 | 1749 ft | 154 kts | 198° |
| 2026-05-09 00:38 | 36.18467 | -86.66027 | 1549 ft | 141 kts | 198° |
| 2026-05-09 00:38 | 36.17549 | -86.66387 | 1358 ft | 136 kts | 198° |
| 2026-05-09 00:39 | 36.16648 | -86.66740 | 1185 ft | 135 kts | 197° |
| 2026-05-09 00:39 | 36.15754 | -86.67088 | 1015 ft | 135 kts | 197° |
| 2026-05-09 00:39 | 36.14862 | -86.67433 | 827 ft | 135 kts | 198° |
| 2026-05-09 00:39 | 36.13972 | -86.67786 | 647 ft | 134 kts | 197° |